sensor_id;sensor_type;location;lat;lon;timestamp;temperature;humidity
29237;DHT22;16266;50.866;4.398;2022-07-23T00:00:58;16.40;99.90
29237;DHT22;16266;50.866;4.398;2022-07-23T00:03:24;16.30;99.90
29237;DHT22;16266;50.866;4.398;2022-07-23T00:05:50;16.30;99.90
29237;DHT22;16266;50.866;4.398;2022-07-23T00:08:16;16.30;99.90
29237;DHT22;16266;50.866;4.398;2022-07-23T00:10:42;16.30;99.90
29237;DHT22;16266;50.866;4.398;2022-07-23T00:13:08;16.30;99.90
29237;DHT22;16266;50.866;4.398;2022-07-23T00:15:34;16.20;99.90
29237;DHT22;16266;50.866;4.398;2022-07-23T00:17:59;16.20;99.90
29237;DHT22;16266;50.866;4.398;2022-07-23T00:20:25;16.20;99.90
29237;DHT22;16266;50.866;4.398;2022-07-23T00:22:52;16.20;99.90
29237;DHT22;16266;50.866;4.398;2022-07-23T00:25:19;16.30;99.90
29237;DHT22;16266;50.866;4.398;2022-07-23T00:27:45;16.20;99.90
29237;DHT22;16266;50.866;4.398;2022-07-23T00:30:11;16.20;99.90
29237;DHT22;16266;50.866;4.398;2022-07-23T00:32:47;16.10;99.90
29237;DHT22;16266;50.866;4.398;2022-07-23T00:35:14;16.10;99.90
29237;DHT22;16266;50.866;4.398;2022-07-23T00:37:39;16.10;99.90
29237;DHT22;16266;50.866;4.398;2022-07-23T00:40:05;16.20;99.90
29237;DHT22;16266;50.866;4.398;2022-07-23T00:42:32;16.10;99.90
29237;DHT22;16266;50.866;4.398;2022-07-23T00:44:58;16.20;99.90
29237;DHT22;16266;50.866;4.398;2022-07-23T00:47:23;16.20;99.90
29237;DHT22;16266;50.866;4.398;2022-07-23T00:49:49;16.10;99.90
29237;DHT22;16266;50.866;4.398;2022-07-23T00:52:15;16.10;99.90
29237;DHT22;16266;50.866;4.398;2022-07-23T00:54:41;16.10;99.90
29237;DHT22;16266;50.866;4.398;2022-07-23T00:57:08;16.00;99.90
29237;DHT22;16266;50.866;4.398;2022-07-23T00:59:34;16.00;99.90
29237;DHT22;16266;50.866;4.398;2022-07-23T01:01:59;16.10;99.90
29237;DHT22;16266;50.866;4.398;2022-07-23T01:04:25;16.00;99.90
29237;DHT22;16266;50.866;4.398;2022-07-23T01:06:50;16.00;99.90
29237;DHT22;16266;50.866;4.398;2022-07-23T01:09:16;16.00;99.90
29237;DHT22;16266;50.866;4.398;2022-07-23T01:11:42;16.00;99.90
29237;DHT22;16266;50.866;4.398;2022-07-23T01:14:16;15.90;99.90
29237;DHT22;16266;50.866;4.398;2022-07-23T01:16:42;15.80;99.90
29237;DHT22;16266;50.866;4.398;2022-07-23T01:19:09;15.80;99.90
29237;DHT22;16266;50.866;4.398;2022-07-23T01:21:40;15.90;99.90
29237;DHT22;16266;50.866;4.398;2022-07-23T01:24:06;15.80;99.90
29237;DHT22;16266;50.866;4.398;2022-07-23T01:26:32;15.80;99.90
29237;DHT22;16266;50.866;4.398;2022-07-23T01:28:58;15.70;99.90
29237;DHT22;16266;50.866;4.398;2022-07-23T01:31:24;15.70;99.90
29237;DHT22;16266;50.866;4.398;2022-07-23T01:33:50;15.70;99.90
29237;DHT22;16266;50.866;4.398;2022-07-23T01:36:15;15.70;99.90
29237;DHT22;16266;50.866;4.398;2022-07-23T01:38:41;15.60;99.90
29237;DHT22;16266;50.866;4.398;2022-07-23T01:41:07;15.60;99.90
29237;DHT22;16266;50.866;4.398;2022-07-23T01:43:32;15.60;99.90
29237;DHT22;16266;50.866;4.398;2022-07-23T01:45:58;15.70;99.90
29237;DHT22;16266;50.866;4.398;2022-07-23T01:48:23;15.60;99.90
29237;DHT22;16266;50.866;4.398;2022-07-23T01:50:49;15.50;99.90
29237;DHT22;16266;50.866;4.398;2022-07-23T01:53:15;15.40;99.90
29237;DHT22;16266;50.866;4.398;2022-07-23T01:55:41;15.50;99.90
29237;DHT22;16266;50.866;4.398;2022-07-23T01:58:07;15.40;99.90
29237;DHT22;16266;50.866;4.398;2022-07-23T02:00:33;15.50;99.90
29237;DHT22;16266;50.866;4.398;2022-07-23T02:02:58;15.50;99.90
29237;DHT22;16266;50.866;4.398;2022-07-23T02:05:24;15.50;99.90
29237;DHT22;16266;50.866;4.398;2022-07-23T02:07:50;15.50;99.90
29237;DHT22;16266;50.866;4.398;2022-07-23T02:10:16;15.50;99.90
29237;DHT22;16266;50.866;4.398;2022-07-23T02:12:42;15.40;99.90
29237;DHT22;16266;50.866;4.398;2022-07-23T02:15:08;15.40;99.90
29237;DHT22;16266;50.866;4.398;2022-07-23T02:17:33;15.50;99.90
29237;DHT22;16266;50.866;4.398;2022-07-23T02:19:59;15.40;99.90
29237;DHT22;16266;50.866;4.398;2022-07-23T02:22:25;15.40;99.90
29237;DHT22;16266;50.866;4.398;2022-07-23T02:24:51;15.40;99.90
29237;DHT22;16266;50.866;4.398;2022-07-23T02:27:16;15.40;99.90
29237;DHT22;16266;50.866;4.398;2022-07-23T02:29:42;15.40;99.90
29237;DHT22;16266;50.866;4.398;2022-07-23T02:32:07;15.40;99.90
29237;DHT22;16266;50.866;4.398;2022-07-23T02:34:33;15.40;99.90
29237;DHT22;16266;50.866;4.398;2022-07-23T02:36:59;15.40;99.90
29237;DHT22;16266;50.866;4.398;2022-07-23T02:39:24;15.40;99.90
29237;DHT22;16266;50.866;4.398;2022-07-23T02:41:50;15.40;99.90
29237;DHT22;16266;50.866;4.398;2022-07-23T02:44:16;15.40;99.90
29237;DHT22;16266;50.866;4.398;2022-07-23T02:46:41;15.40;99.90
29237;DHT22;16266;50.866;4.398;2022-07-23T02:49:07;15.30;99.90
29237;DHT22;16266;50.866;4.398;2022-07-23T02:51:33;15.30;99.90
29237;DHT22;16266;50.866;4.398;2022-07-23T02:53:58;15.30;99.90
29237;DHT22;16266;50.866;4.398;2022-07-23T02:56:24;15.20;99.90
29237;DHT22;16266;50.866;4.398;2022-07-23T02:58:49;15.20;99.90
29237;DHT22;16266;50.866;4.398;2022-07-23T03:01:15;15.30;99.90
29237;DHT22;16266;50.866;4.398;2022-07-23T03:03:41;15.30;99.90
29237;DHT22;16266;50.866;4.398;2022-07-23T03:06:06;15.30;99.90
29237;DHT22;16266;50.866;4.398;2022-07-23T03:08:32;15.30;99.90
29237;DHT22;16266;50.866;4.398;2022-07-23T03:10:59;15.30;99.90
29237;DHT22;16266;50.866;4.398;2022-07-23T03:13:24;15.30;99.90
29237;DHT22;16266;50.866;4.398;2022-07-23T03:15:50;15.40;99.90
29237;DHT22;16266;50.866;4.398;2022-07-23T03:18:15;15.30;99.90
29237;DHT22;16266;50.866;4.398;2022-07-23T03:20:41;15.20;99.90
29237;DHT22;16266;50.866;4.398;2022-07-23T03:23:07;15.20;99.90
29237;DHT22;16266;50.866;4.398;2022-07-23T03:25:33;15.20;99.90
29237;DHT22;16266;50.866;4.398;2022-07-23T03:27:58;15.20;99.90
29237;DHT22;16266;50.866;4.398;2022-07-23T03:30:24;15.30;99.90
29237;DHT22;16266;50.866;4.398;2022-07-23T03:32:49;15.30;99.90
29237;DHT22;16266;50.866;4.398;2022-07-23T03:35:15;15.30;99.90
29237;DHT22;16266;50.866;4.398;2022-07-23T03:37:41;15.20;99.90
29237;DHT22;16266;50.866;4.398;2022-07-23T03:40:07;15.20;99.90
29237;DHT22;16266;50.866;4.398;2022-07-23T03:42:32;15.20;99.90
29237;DHT22;16266;50.866;4.398;2022-07-23T03:44:59;15.20;99.90
29237;DHT22;16266;50.866;4.398;2022-07-23T03:47:24;15.20;99.90
29237;DHT22;16266;50.866;4.398;2022-07-23T03:49:50;15.20;99.90
29237;DHT22;16266;50.866;4.398;2022-07-23T03:52:15;15.40;99.90
29237;DHT22;16266;50.866;4.398;2022-07-23T03:54:41;15.40;99.90
29237;DHT22;16266;50.866;4.398;2022-07-23T03:57:06;15.30;99.90
29237;DHT22;16266;50.866;4.398;2022-07-23T03:59:32;15.30;99.90
29237;DHT22;16266;50.866;4.398;2022-07-23T04:01:58;15.30;99.90
29237;DHT22;16266;50.866;4.398;2022-07-23T04:04:23;15.20;99.90
29237;DHT22;16266;50.866;4.398;2022-07-23T04:06:49;15.30;99.90
29237;DHT22;16266;50.866;4.398;2022-07-23T04:09:15;15.30;99.90
29237;DHT22;16266;50.866;4.398;2022-07-23T04:11:40;15.50;99.90
29237;DHT22;16266;50.866;4.398;2022-07-23T04:14:06;15.50;99.90
29237;DHT22;16266;50.866;4.398;2022-07-23T04:16:32;15.50;99.90
29237;DHT22;16266;50.866;4.398;2022-07-23T04:18:58;15.60;99.90
29237;DHT22;16266;50.866;4.398;2022-07-23T04:21:24;15.70;99.90
29237;DHT22;16266;50.866;4.398;2022-07-23T04:23:50;15.70;99.90
29237;DHT22;16266;50.866;4.398;2022-07-23T04:26:15;15.80;99.90
29237;DHT22;16266;50.866;4.398;2022-07-23T04:28:41;15.90;99.90
29237;DHT22;16266;50.866;4.398;2022-07-23T04:31:07;16.00;99.90
29237;DHT22;16266;50.866;4.398;2022-07-23T04:33:33;16.10;99.90
29237;DHT22;16266;50.866;4.398;2022-07-23T04:35:58;16.20;99.90
29237;DHT22;16266;50.866;4.398;2022-07-23T04:38:24;16.40;99.90
29237;DHT22;16266;50.866;4.398;2022-07-23T04:40:50;16.40;99.90
29237;DHT22;16266;50.866;4.398;2022-07-23T04:43:16;16.60;99.90
29237;DHT22;16266;50.866;4.398;2022-07-23T04:45:41;17.00;99.90
29237;DHT22;16266;50.866;4.398;2022-07-23T04:48:07;17.40;99.90
29237;DHT22;16266;50.866;4.398;2022-07-23T04:50:32;17.80;99.90
29237;DHT22;16266;50.866;4.398;2022-07-23T04:52:58;18.00;99.90
29237;DHT22;16266;50.866;4.398;2022-07-23T04:55:24;18.20;99.90
29237;DHT22;16266;50.866;4.398;2022-07-23T04:57:49;18.60;99.90
29237;DHT22;16266;50.866;4.398;2022-07-23T05:00:15;19.00;99.90
29237;DHT22;16266;50.866;4.398;2022-07-23T05:02:41;19.50;99.90
29237;DHT22;16266;50.866;4.398;2022-07-23T05:05:07;19.70;99.90
29237;DHT22;16266;50.866;4.398;2022-07-23T05:07:32;20.30;99.90
29237;DHT22;16266;50.866;4.398;2022-07-23T05:09:58;20.90;99.90
29237;DHT22;16266;50.866;4.398;2022-07-23T05:12:24;21.50;99.90
29237;DHT22;16266;50.866;4.398;2022-07-23T05:14:49;22.10;99.90
29237;DHT22;16266;50.866;4.398;2022-07-23T05:17:15;22.70;99.90
29237;DHT22;16266;50.866;4.398;2022-07-23T05:19:40;23.10;99.90
29237;DHT22;16266;50.866;4.398;2022-07-23T05:22:06;23.70;99.90
29237;DHT22;16266;50.866;4.398;2022-07-23T05:24:31;23.90;99.90
29237;DHT22;16266;50.866;4.398;2022-07-23T05:26:57;24.40;99.90
29237;DHT22;16266;50.866;4.398;2022-07-23T05:29:22;24.80;99.90
29237;DHT22;16266;50.866;4.398;2022-07-23T05:31:48;24.30;99.90
29237;DHT22;16266;50.866;4.398;2022-07-23T05:34:14;23.70;99.90
29237;DHT22;16266;50.866;4.398;2022-07-23T05:36:39;23.20;99.90
29237;DHT22;16266;50.866;4.398;2022-07-23T05:39:05;23.10;99.90
29237;DHT22;16266;50.866;4.398;2022-07-23T05:41:30;22.70;99.90
29237;DHT22;16266;50.866;4.398;2022-07-23T05:43:56;22.60;99.90
29237;DHT22;16266;50.866;4.398;2022-07-23T05:46:21;22.40;99.90
29237;DHT22;16266;50.866;4.398;2022-07-23T05:48:47;22.50;99.90
29237;DHT22;16266;50.866;4.398;2022-07-23T05:51:20;22.50;99.90
29237;DHT22;16266;50.866;4.398;2022-07-23T05:53:46;22.30;99.90
29237;DHT22;16266;50.866;4.398;2022-07-23T05:56:12;22.20;99.90
29237;DHT22;16266;50.866;4.398;2022-07-23T05:58:37;22.50;99.90
29237;DHT22;16266;50.866;4.398;2022-07-23T06:01:03;23.00;99.90
29237;DHT22;16266;50.866;4.398;2022-07-23T06:03:30;23.20;99.90
29237;DHT22;16266;50.866;4.398;2022-07-23T06:05:56;23.30;99.90
29237;DHT22;16266;50.866;4.398;2022-07-23T06:08:21;23.50;99.90
29237;DHT22;16266;50.866;4.398;2022-07-23T06:10:47;23.90;99.90
29237;DHT22;16266;50.866;4.398;2022-07-23T06:13:13;24.90;99.90
29237;DHT22;16266;50.866;4.398;2022-07-23T06:15:38;26.40;99.90
29237;DHT22;16266;50.866;4.398;2022-07-23T06:18:04;27.30;99.90
29237;DHT22;16266;50.866;4.398;2022-07-23T06:20:29;28.10;99.90
29237;DHT22;16266;50.866;4.398;2022-07-23T06:22:55;29.10;99.40
29237;DHT22;16266;50.866;4.398;2022-07-23T06:25:21;29.80;93.40
29237;DHT22;16266;50.866;4.398;2022-07-23T06:27:47;30.70;86.00
29237;DHT22;16266;50.866;4.398;2022-07-23T06:30:13;31.10;79.20
29237;DHT22;16266;50.866;4.398;2022-07-23T06:32:41;31.90;75.40
29237;DHT22;16266;50.866;4.398;2022-07-23T06:35:07;32.10;72.20
29237;DHT22;16266;50.866;4.398;2022-07-23T06:37:33;32.40;69.90
29237;DHT22;16266;50.866;4.398;2022-07-23T06:39:58;32.50;62.60
29237;DHT22;16266;50.866;4.398;2022-07-23T06:42:24;32.90;58.10
29237;DHT22;16266;50.866;4.398;2022-07-23T06:44:49;33.60;53.30
29237;DHT22;16266;50.866;4.398;2022-07-23T06:47:15;34.40;49.10
29237;DHT22;16266;50.866;4.398;2022-07-23T06:49:40;34.40;49.10
29237;DHT22;16266;50.866;4.398;2022-07-23T06:52:07;34.60;44.60
29237;DHT22;16266;50.866;4.398;2022-07-23T06:54:32;35.10;45.70
29237;DHT22;16266;50.866;4.398;2022-07-23T06:56:58;35.00;41.80
29237;DHT22;16266;50.866;4.398;2022-07-23T06:59:24;35.00;42.20
29237;DHT22;16266;50.866;4.398;2022-07-23T07:01:49;35.40;40.40
29237;DHT22;16266;50.866;4.398;2022-07-23T07:04:15;35.70;36.10
29237;DHT22;16266;50.866;4.398;2022-07-23T07:06:40;35.80;35.60
29237;DHT22;16266;50.866;4.398;2022-07-23T07:09:06;36.10;36.40
29237;DHT22;16266;50.866;4.398;2022-07-23T07:11:32;36.80;34.10
29237;DHT22;16266;50.866;4.398;2022-07-23T07:13:57;37.30;32.70
29237;DHT22;16266;50.866;4.398;2022-07-23T07:16:23;37.00;30.20
29237;DHT22;16266;50.866;4.398;2022-07-23T07:18:49;37.30;28.90
29237;DHT22;16266;50.866;4.398;2022-07-23T07:21:14;37.60;29.40
29237;DHT22;16266;50.866;4.398;2022-07-23T07:23:40;37.90;29.90
29237;DHT22;16266;50.866;4.398;2022-07-23T07:26:06;37.80;27.90
29237;DHT22;16266;50.866;4.398;2022-07-23T07:28:31;37.50;27.10
29237;DHT22;16266;50.866;4.398;2022-07-23T07:30:57;38.00;26.10
29237;DHT22;16266;50.866;4.398;2022-07-23T07:33:23;38.60;25.30
29237;DHT22;16266;50.866;4.398;2022-07-23T07:35:48;39.30;25.90
29237;DHT22;16266;50.866;4.398;2022-07-23T07:38:14;40.20;23.70
29237;DHT22;16266;50.866;4.398;2022-07-23T07:40:40;40.30;23.30
29237;DHT22;16266;50.866;4.398;2022-07-23T07:43:06;40.00;22.60
29237;DHT22;16266;50.866;4.398;2022-07-23T07:45:31;40.50;22.30
29237;DHT22;16266;50.866;4.398;2022-07-23T07:47:57;40.50;21.10
29237;DHT22;16266;50.866;4.398;2022-07-23T07:50:23;40.10;20.40
29237;DHT22;16266;50.866;4.398;2022-07-23T07:52:48;39.50;20.90
29237;DHT22;16266;50.866;4.398;2022-07-23T07:55:15;39.90;20.60
29237;DHT22;16266;50.866;4.398;2022-07-23T07:57:40;39.80;20.00
29237;DHT22;16266;50.866;4.398;2022-07-23T08:00:08;39.60;20.10
29237;DHT22;16266;50.866;4.398;2022-07-23T08:02:45;40.20;20.60
29237;DHT22;16266;50.866;4.398;2022-07-23T08:05:11;40.20;19.80
29237;DHT22;16266;50.866;4.398;2022-07-23T08:07:38;40.00;20.30
29237;DHT22;16266;50.866;4.398;2022-07-23T08:10:08;40.00;18.60
29237;DHT22;16266;50.866;4.398;2022-07-23T08:12:50;40.20;19.90
29237;DHT22;16266;50.866;4.398;2022-07-23T08:15:18;41.20;18.40
29237;DHT22;16266;50.866;4.398;2022-07-23T08:17:45;41.60;17.70
29237;DHT22;16266;50.866;4.398;2022-07-23T08:20:12;41.80;17.70
29237;DHT22;16266;50.866;4.398;2022-07-23T08:22:58;42.20;16.80
29237;DHT22;16266;50.866;4.398;2022-07-23T08:25:33;41.70;17.00
29237;DHT22;16266;50.866;4.398;2022-07-23T08:28:01;42.30;16.40
29237;DHT22;16266;50.866;4.398;2022-07-23T08:30:28;42.90;15.60
29237;DHT22;16266;50.866;4.398;2022-07-23T08:32:58;43.80;14.60
29237;DHT22;16266;50.866;4.398;2022-07-23T08:35:35;43.80;13.80
29237;DHT22;16266;50.866;4.398;2022-07-23T08:38:06;43.20;13.00
29237;DHT22;16266;50.866;4.398;2022-07-23T08:40:34;43.80;12.50
29237;DHT22;16266;50.866;4.398;2022-07-23T08:43:06;44.00;13.00
29237;DHT22;16266;50.866;4.398;2022-07-23T08:45:37;43.90;12.60
29237;DHT22;16266;50.866;4.398;2022-07-23T08:48:06;44.10;12.80
29237;DHT22;16266;50.866;4.398;2022-07-23T08:50:32;44.70;12.30
29237;DHT22;16266;50.866;4.398;2022-07-23T08:53:00;44.50;11.00
29237;DHT22;16266;50.866;4.398;2022-07-23T08:55:26;44.00;11.90
29237;DHT22;16266;50.866;4.398;2022-07-23T08:57:53;44.00;12.50
29237;DHT22;16266;50.866;4.398;2022-07-23T09:00:21;43.60;12.10
29237;DHT22;16266;50.866;4.398;2022-07-23T09:02:47;43.10;11.60
29237;DHT22;16266;50.866;4.398;2022-07-23T09:05:14;43.80;11.80
29237;DHT22;16266;50.866;4.398;2022-07-23T09:08:03;43.40;11.40
29237;DHT22;16266;50.866;4.398;2022-07-23T09:10:29;44.00;11.30
29237;DHT22;16266;50.866;4.398;2022-07-23T09:12:54;44.40;10.50
29237;DHT22;16266;50.866;4.398;2022-07-23T09:15:20;44.90;9.50
29237;DHT22;16266;50.866;4.398;2022-07-23T09:17:46;45.60;9.40
29237;DHT22;16266;50.866;4.398;2022-07-23T09:20:16;45.70;8.90
29237;DHT22;16266;50.866;4.398;2022-07-23T09:22:48;45.10;9.30
29237;DHT22;16266;50.866;4.398;2022-07-23T09:25:18;44.70;9.60
29237;DHT22;16266;50.866;4.398;2022-07-23T09:27:59;43.40;10.50
29237;DHT22;16266;50.866;4.398;2022-07-23T09:30:30;43.70;9.70
29237;DHT22;16266;50.866;4.398;2022-07-23T09:33:13;44.30;9.10
29237;DHT22;16266;50.866;4.398;2022-07-23T09:38:18;44.90;8.50
29237;DHT22;16266;50.866;4.398;2022-07-23T09:40:45;44.30;7.70
29237;DHT22;16266;50.866;4.398;2022-07-23T09:43:12;43.70;9.00
29237;DHT22;16266;50.866;4.398;2022-07-23T09:45:37;44.30;8.20
29237;DHT22;16266;50.866;4.398;2022-07-23T09:48:13;43.60;7.80
29237;DHT22;16266;50.866;4.398;2022-07-23T09:50:40;43.40;8.90
29237;DHT22;16266;50.866;4.398;2022-07-23T09:53:06;43.50;8.90
29237;DHT22;16266;50.866;4.398;2022-07-23T09:55:33;44.30;7.90
29237;DHT22;16266;50.866;4.398;2022-07-23T09:58:02;45.10;7.70
29237;DHT22;16266;50.866;4.398;2022-07-23T10:00:29;45.10;6.90
29237;DHT22;16266;50.866;4.398;2022-07-23T10:02:55;45.00;7.00
29237;DHT22;16266;50.866;4.398;2022-07-23T10:05:21;44.00;7.10
29237;DHT22;16266;50.866;4.398;2022-07-23T10:07:48;43.80;6.70
29237;DHT22;16266;50.866;4.398;2022-07-23T10:10:16;43.80;7.30
29237;DHT22;16266;50.866;4.398;2022-07-23T10:12:44;42.50;8.10
29237;DHT22;16266;50.866;4.398;2022-07-23T10:15:28;42.50;8.10
29237;DHT22;16266;50.866;4.398;2022-07-23T10:17:54;43.70;7.60
29237;DHT22;16266;50.866;4.398;2022-07-23T10:20:20;44.20;6.80
29237;DHT22;16266;50.866;4.398;2022-07-23T10:23:27;45.30;6.10
29237;DHT22;16266;50.866;4.398;2022-07-23T10:28:42;46.80;5.30
29237;DHT22;16266;50.866;4.398;2022-07-23T10:34:30;43.60;6.80
29237;DHT22;16266;50.866;4.398;2022-07-23T10:37:14;44.00;7.60
29237;DHT22;16266;50.866;4.398;2022-07-23T10:39:47;44.90;6.80
29237;DHT22;16266;50.866;4.398;2022-07-23T10:42:17;44.80;6.40
29237;DHT22;16266;50.866;4.398;2022-07-23T10:44:43;44.60;6.10
29237;DHT22;16266;50.866;4.398;2022-07-23T10:47:10;44.50;6.30
29237;DHT22;16266;50.866;4.398;2022-07-23T10:49:50;44.20;5.90
29237;DHT22;16266;50.866;4.398;2022-07-23T10:52:17;44.20;6.40
29237;DHT22;16266;50.866;4.398;2022-07-23T10:57:09;43.30;7.00
29237;DHT22;16266;50.866;4.398;2022-07-23T11:02:33;42.90;8.00
29237;DHT22;16266;50.866;4.398;2022-07-23T11:05:03;43.50;7.20
29237;DHT22;16266;50.866;4.398;2022-07-23T11:07:29;43.50;7.20
29237;DHT22;16266;50.866;4.398;2022-07-23T11:09:55;44.00;6.70
29237;DHT22;16266;50.866;4.398;2022-07-23T11:15:12;45.60;6.40
29237;DHT22;16266;50.866;4.398;2022-07-23T11:20:18;47.80;5.40
29237;DHT22;16266;50.866;4.398;2022-07-23T11:27:45;44.10;5.70
29237;DHT22;16266;50.866;4.398;2022-07-23T11:35:39;43.40;8.10
29237;DHT22;16266;50.866;4.398;2022-07-23T11:38:18;44.20;6.20
29237;DHT22;16266;50.866;4.398;2022-07-23T11:40:44;44.80;6.60
29237;DHT22;16266;50.866;4.398;2022-07-23T11:43:11;45.90;5.70
29237;DHT22;16266;50.866;4.398;2022-07-23T11:45:49;43.90;6.70
29237;DHT22;16266;50.866;4.398;2022-07-23T11:48:21;41.60;7.50
29237;DHT22;16266;50.866;4.398;2022-07-23T11:50:48;42.00;8.00
29237;DHT22;16266;50.866;4.398;2022-07-23T11:53:20;42.70;7.90
29237;DHT22;16266;50.866;4.398;2022-07-23T11:55:46;43.40;7.60
29237;DHT22;16266;50.866;4.398;2022-07-23T11:58:12;44.20;7.00
29237;DHT22;16266;50.866;4.398;2022-07-23T12:00:41;45.30;6.40
29237;DHT22;16266;50.866;4.398;2022-07-23T12:03:06;44.20;6.20
29237;DHT22;16266;50.866;4.398;2022-07-23T12:05:34;44.40;6.70
29237;DHT22;16266;50.866;4.398;2022-07-23T12:08:02;44.30;6.60
29237;DHT22;16266;50.866;4.398;2022-07-23T12:10:42;43.10;7.30
29237;DHT22;16266;50.866;4.398;2022-07-23T12:13:14;43.50;7.20
29237;DHT22;16266;50.866;4.398;2022-07-23T12:15:46;43.70;7.30
29237;DHT22;16266;50.866;4.398;2022-07-23T12:18:15;43.40;7.50
29237;DHT22;16266;50.866;4.398;2022-07-23T12:20:44;43.60;7.20
29237;DHT22;16266;50.866;4.398;2022-07-23T12:23:12;43.20;7.80
29237;DHT22;16266;50.866;4.398;2022-07-23T12:25:40;41.60;8.20
29237;DHT22;16266;50.866;4.398;2022-07-23T12:30:38;39.40;10.70
29237;DHT22;16266;50.866;4.398;2022-07-23T12:33:06;39.90;10.80
29237;DHT22;16266;50.866;4.398;2022-07-23T12:35:43;39.00;11.20
29237;DHT22;16266;50.866;4.398;2022-07-23T12:38:12;38.30;12.40
29237;DHT22;16266;50.866;4.398;2022-07-23T12:40:56;38.10;12.20
29237;DHT22;16266;50.866;4.398;2022-07-23T12:43:26;37.70;12.60
29237;DHT22;16266;50.866;4.398;2022-07-23T12:50:57;39.10;11.20
29237;DHT22;16266;50.866;4.398;2022-07-23T12:53:26;40.80;9.90
29237;DHT22;16266;50.866;4.398;2022-07-23T12:56:01;41.40;8.90
29237;DHT22;16266;50.866;4.398;2022-07-23T12:58:27;42.60;8.30
29237;DHT22;16266;50.866;4.398;2022-07-23T13:01:04;44.30;8.10
29237;DHT22;16266;50.866;4.398;2022-07-23T13:03:40;43.80;7.50
29237;DHT22;16266;50.866;4.398;2022-07-23T13:06:08;43.20;7.30
29237;DHT22;16266;50.866;4.398;2022-07-23T13:08:36;42.00;8.60
29237;DHT22;16266;50.866;4.398;2022-07-23T13:11:03;41.70;8.40
29237;DHT22;16266;50.866;4.398;2022-07-23T13:13:31;40.20;9.80
29237;DHT22;16266;50.866;4.398;2022-07-23T13:15:58;40.30;10.00
29237;DHT22;16266;50.866;4.398;2022-07-23T13:18:24;40.30;10.20
29237;DHT22;16266;50.866;4.398;2022-07-23T13:20:50;39.50;10.20
29237;DHT22;16266;50.866;4.398;2022-07-23T13:23:16;39.10;11.40
29237;DHT22;16266;50.866;4.398;2022-07-23T13:25:43;39.10;10.70
29237;DHT22;16266;50.866;4.398;2022-07-23T13:28:08;39.60;10.30
29237;DHT22;16266;50.866;4.398;2022-07-23T13:30:34;38.90;10.90
29237;DHT22;16266;50.866;4.398;2022-07-23T13:33:02;39.30;10.80
29237;DHT22;16266;50.866;4.398;2022-07-23T13:35:28;38.40;11.00
29237;DHT22;16266;50.866;4.398;2022-07-23T13:37:54;39.20;11.20
29237;DHT22;16266;50.866;4.398;2022-07-23T13:40:20;39.90;10.70
29237;DHT22;16266;50.866;4.398;2022-07-23T13:42:45;40.10;10.60
29237;DHT22;16266;50.866;4.398;2022-07-23T13:45:11;40.10;10.40
29237;DHT22;16266;50.866;4.398;2022-07-23T13:47:37;38.70;10.90
29237;DHT22;16266;50.866;4.398;2022-07-23T13:50:03;37.80;12.10
29237;DHT22;16266;50.866;4.398;2022-07-23T13:52:29;37.90;12.30
29237;DHT22;16266;50.866;4.398;2022-07-23T13:54:55;37.80;12.60
29237;DHT22;16266;50.866;4.398;2022-07-23T13:57:20;37.90;12.80
29237;DHT22;16266;50.866;4.398;2022-07-23T13:59:46;38.20;13.00
29237;DHT22;16266;50.866;4.398;2022-07-23T14:02:14;37.90;12.20
29237;DHT22;16266;50.866;4.398;2022-07-23T14:04:40;37.40;12.70
29237;DHT22;16266;50.866;4.398;2022-07-23T14:07:06;36.80;13.70
29237;DHT22;16266;50.866;4.398;2022-07-23T14:09:32;36.30;14.10
29237;DHT22;16266;50.866;4.398;2022-07-23T14:11:59;35.80;14.90
29237;DHT22;16266;50.866;4.398;2022-07-23T14:14:25;35.90;15.00
29237;DHT22;16266;50.866;4.398;2022-07-23T14:16:50;36.30;14.50
29237;DHT22;16266;50.866;4.398;2022-07-23T14:19:16;36.10;15.70
29237;DHT22;16266;50.866;4.398;2022-07-23T14:21:41;35.70;16.10
29237;DHT22;16266;50.866;4.398;2022-07-23T14:24:07;35.80;15.30
29237;DHT22;16266;50.866;4.398;2022-07-23T14:26:32;36.20;15.90
29237;DHT22;16266;50.866;4.398;2022-07-23T14:28:58;36.30;15.00
29237;DHT22;16266;50.866;4.398;2022-07-23T14:31:24;36.00;15.30
29237;DHT22;16266;50.866;4.398;2022-07-23T14:33:49;36.20;15.30
29237;DHT22;16266;50.866;4.398;2022-07-23T14:36:15;36.30;15.20
29237;DHT22;16266;50.866;4.398;2022-07-23T14:38:41;36.20;15.70
29237;DHT22;16266;50.866;4.398;2022-07-23T14:41:07;36.20;15.60
29237;DHT22;16266;50.866;4.398;2022-07-23T14:43:33;36.70;15.20
29237;DHT22;16266;50.866;4.398;2022-07-23T14:45:59;36.30;14.30
29237;DHT22;16266;50.866;4.398;2022-07-23T14:48:25;36.10;15.10
29237;DHT22;16266;50.866;4.398;2022-07-23T14:50:51;35.80;15.60
29237;DHT22;16266;50.866;4.398;2022-07-23T14:53:17;35.80;15.80
29237;DHT22;16266;50.866;4.398;2022-07-23T14:55:42;35.30;15.50
29237;DHT22;16266;50.866;4.398;2022-07-23T14:58:08;35.10;15.70
29237;DHT22;16266;50.866;4.398;2022-07-23T15:00:34;35.10;16.50
29237;DHT22;16266;50.866;4.398;2022-07-23T15:03:00;35.40;16.00
29237;DHT22;16266;50.866;4.398;2022-07-23T15:05:25;35.30;15.70
29237;DHT22;16266;50.866;4.398;2022-07-23T15:07:51;34.50;16.50
29237;DHT22;16266;50.866;4.398;2022-07-23T15:10:17;34.50;16.80
29237;DHT22;16266;50.866;4.398;2022-07-23T15:12:42;34.70;17.10
29237;DHT22;16266;50.866;4.398;2022-07-23T15:15:08;34.80;17.20
29237;DHT22;16266;50.866;4.398;2022-07-23T15:17:34;34.90;17.30
29237;DHT22;16266;50.866;4.398;2022-07-23T15:19:59;34.80;17.50
29237;DHT22;16266;50.866;4.398;2022-07-23T15:22:25;34.30;17.50
29237;DHT22;16266;50.866;4.398;2022-07-23T15:24:51;33.60;17.90
29237;DHT22;16266;50.866;4.398;2022-07-23T15:27:16;33.30;18.90
29237;DHT22;16266;50.866;4.398;2022-07-23T15:29:43;33.10;19.20
29237;DHT22;16266;50.866;4.398;2022-07-23T15:32:10;33.00;19.30
29237;DHT22;16266;50.866;4.398;2022-07-23T15:34:38;32.80;19.90
29237;DHT22;16266;50.866;4.398;2022-07-23T15:37:03;32.70;19.40
29237;DHT22;16266;50.866;4.398;2022-07-23T15:39:31;32.50;20.00
29237;DHT22;16266;50.866;4.398;2022-07-23T15:41:59;32.40;20.30
29237;DHT22;16266;50.866;4.398;2022-07-23T15:44:25;32.20;20.00
29237;DHT22;16266;50.866;4.398;2022-07-23T15:46:50;32.10;20.50
29237;DHT22;16266;50.866;4.398;2022-07-23T15:49:18;31.90;20.90
29237;DHT22;16266;50.866;4.398;2022-07-23T15:51:44;31.70;21.30
29237;DHT22;16266;50.866;4.398;2022-07-23T15:54:09;31.70;21.80
29237;DHT22;16266;50.866;4.398;2022-07-23T15:56:35;31.50;22.00
29237;DHT22;16266;50.866;4.398;2022-07-23T15:59:01;31.50;22.30
29237;DHT22;16266;50.866;4.398;2022-07-23T16:01:26;31.50;22.50
29237;DHT22;16266;50.866;4.398;2022-07-23T16:03:55;31.60;22.10
29237;DHT22;16266;50.866;4.398;2022-07-23T16:06:21;31.80;22.00
29237;DHT22;16266;50.866;4.398;2022-07-23T16:08:47;31.80;22.00
29237;DHT22;16266;50.866;4.398;2022-07-23T16:11:13;31.90;22.60